sensor_id;sensor_type;location;lat;lon;timestamp;P1;durP1;ratioP1;P2;durP2;ratioP2
5052;SDS011;2545;50.892;5.740;2022-08-19T00:01:52;24.33;;;16.90;;
5052;SDS011;2545;50.892;5.740;2022-08-19T00:04:19;20.17;;;17.20;;
5052;SDS011;2545;50.892;5.740;2022-08-19T00:06:47;19.90;;;16.47;;
5052;SDS011;2545;50.892;5.740;2022-08-19T00:09:14;23.63;;;16.20;;
5052;SDS011;2545;50.892;5.740;2022-08-19T00:11:41;20.40;;;17.00;;
5052;SDS011;2545;50.892;5.740;2022-08-19T00:14:09;29.47;;;16.37;;
5052;SDS011;2545;50.892;5.740;2022-08-19T00:16:37;21.83;;;17.10;;
5052;SDS011;2545;50.892;5.740;2022-08-19T00:19:03;21.63;;;17.33;;
5052;SDS011;2545;50.892;5.740;2022-08-19T00:21:29;22.37;;;16.80;;
5052;SDS011;2545;50.892;5.740;2022-08-19T00:23:55;19.80;;;17.50;;
5052;SDS011;2545;50.892;5.740;2022-08-19T00:26:23;20.53;;;18.33;;
5052;SDS011;2545;50.892;5.740;2022-08-19T00:28:49;22.83;;;17.17;;
5052;SDS011;2545;50.892;5.740;2022-08-19T00:31:15;23.83;;;18.00;;
5052;SDS011;2545;50.892;5.740;2022-08-19T00:33:41;24.83;;;19.60;;
5052;SDS011;2545;50.892;5.740;2022-08-19T00:36:07;23.90;;;18.20;;
5052;SDS011;2545;50.892;5.740;2022-08-19T00:38:34;24.80;;;17.90;;
5052;SDS011;2545;50.892;5.740;2022-08-19T00:41:01;27.27;;;19.77;;
5052;SDS011;2545;50.892;5.740;2022-08-19T00:43:26;21.40;;;19.00;;
5052;SDS011;2545;50.892;5.740;2022-08-19T00:45:52;23.50;;;19.77;;
5052;SDS011;2545;50.892;5.740;2022-08-19T00:48:18;25.90;;;20.87;;
5052;SDS011;2545;50.892;5.740;2022-08-19T00:50:45;26.50;;;18.57;;
5052;SDS011;2545;50.892;5.740;2022-08-19T00:53:13;23.13;;;19.73;;
5052;SDS011;2545;50.892;5.740;2022-08-19T00:55:42;29.60;;;20.47;;
5052;SDS011;2545;50.892;5.740;2022-08-19T00:58:12;22.73;;;20.23;;
5052;SDS011;2545;50.892;5.740;2022-08-19T01:00:40;28.93;;;19.83;;
5052;SDS011;2545;50.892;5.740;2022-08-19T01:03:07;25.60;;;21.37;;
5052;SDS011;2545;50.892;5.740;2022-08-19T01:05:35;30.93;;;20.83;;
5052;SDS011;2545;50.892;5.740;2022-08-19T01:08:02;24.40;;;20.60;;
5052;SDS011;2545;50.892;5.740;2022-08-19T01:10:32;26.60;;;21.50;;
5052;SDS011;2545;50.892;5.740;2022-08-19T01:13:02;29.30;;;22.10;;
5052;SDS011;2545;50.892;5.740;2022-08-19T01:15:30;24.73;;;20.53;;
5052;SDS011;2545;50.892;5.740;2022-08-19T01:18:04;23.57;;;19.60;;
5052;SDS011;2545;50.892;5.740;2022-08-19T01:20:32;22.43;;;18.50;;
5052;SDS011;2545;50.892;5.740;2022-08-19T01:22:59;25.87;;;21.07;;
5052;SDS011;2545;50.892;5.740;2022-08-19T01:25:27;24.03;;;21.10;;
5052;SDS011;2545;50.892;5.740;2022-08-19T01:27:54;26.70;;;20.37;;
5052;SDS011;2545;50.892;5.740;2022-08-19T01:30:25;23.60;;;20.20;;
5052;SDS011;2545;50.892;5.740;2022-08-19T01:32:53;28.57;;;20.87;;
5052;SDS011;2545;50.892;5.740;2022-08-19T01:35:19;26.77;;;22.53;;
5052;SDS011;2545;50.892;5.740;2022-08-19T01:37:51;26.73;;;22.70;;
5052;SDS011;2545;50.892;5.740;2022-08-19T01:40:19;33.43;;;23.90;;
5052;SDS011;2545;50.892;5.740;2022-08-19T01:42:47;35.13;;;23.13;;
5052;SDS011;2545;50.892;5.740;2022-08-19T01:45:13;33.10;;;24.30;;
5052;SDS011;2545;50.892;5.740;2022-08-19T01:47:39;28.80;;;24.60;;
5052;SDS011;2545;50.892;5.740;2022-08-19T01:50:06;33.70;;;26.47;;
5052;SDS011;2545;50.892;5.740;2022-08-19T01:52:35;34.93;;;25.30;;
5052;SDS011;2545;50.892;5.740;2022-08-19T01:55:01;34.30;;;26.07;;
5052;SDS011;2545;50.892;5.740;2022-08-19T01:57:26;32.50;;;26.50;;
5052;SDS011;2545;50.892;5.740;2022-08-19T01:59:52;32.10;;;25.53;;
5052;SDS011;2545;50.892;5.740;2022-08-19T02:02:18;32.00;;;25.83;;
5052;SDS011;2545;50.892;5.740;2022-08-19T02:04:44;32.90;;;25.13;;
5052;SDS011;2545;50.892;5.740;2022-08-19T02:07:10;31.53;;;26.47;;
5052;SDS011;2545;50.892;5.740;2022-08-19T02:09:36;34.77;;;27.60;;
5052;SDS011;2545;50.892;5.740;2022-08-19T02:12:01;29.90;;;25.77;;
5052;SDS011;2545;50.892;5.740;2022-08-19T02:14:27;34.90;;;26.07;;
5052;SDS011;2545;50.892;5.740;2022-08-19T02:16:52;36.60;;;28.40;;
5052;SDS011;2545;50.892;5.740;2022-08-19T02:19:17;44.40;;;27.67;;
5052;SDS011;2545;50.892;5.740;2022-08-19T02:21:43;35.07;;;27.07;;
5052;SDS011;2545;50.892;5.740;2022-08-19T02:24:08;32.53;;;27.00;;
5052;SDS011;2545;50.892;5.740;2022-08-19T02:26:34;32.90;;;26.20;;
5052;SDS011;2545;50.892;5.740;2022-08-19T02:28:59;45.83;;;26.43;;
5052;SDS011;2545;50.892;5.740;2022-08-19T02:31:25;36.00;;;25.03;;
5052;SDS011;2545;50.892;5.740;2022-08-19T02:33:52;33.20;;;24.80;;
5052;SDS011;2545;50.892;5.740;2022-08-19T02:36:18;34.40;;;27.03;;
5052;SDS011;2545;50.892;5.740;2022-08-19T02:38:44;34.97;;;27.30;;
5052;SDS011;2545;50.892;5.740;2022-08-19T02:41:16;40.73;;;26.63;;
5052;SDS011;2545;50.892;5.740;2022-08-19T02:43:44;37.03;;;28.10;;
5052;SDS011;2545;50.892;5.740;2022-08-19T02:46:17;33.13;;;27.00;;
5052;SDS011;2545;50.892;5.740;2022-08-19T02:48:49;34.07;;;28.00;;
5052;SDS011;2545;50.892;5.740;2022-08-19T02:51:18;35.00;;;27.47;;
5052;SDS011;2545;50.892;5.740;2022-08-19T02:53:48;33.87;;;25.30;;
5052;SDS011;2545;50.892;5.740;2022-08-19T02:56:13;34.00;;;27.80;;
5052;SDS011;2545;50.892;5.740;2022-08-19T02:58:39;36.33;;;27.47;;
5052;SDS011;2545;50.892;5.740;2022-08-19T03:01:05;38.43;;;27.00;;
5052;SDS011;2545;50.892;5.740;2022-08-19T03:03:30;37.97;;;29.93;;
5052;SDS011;2545;50.892;5.740;2022-08-19T03:06:11;40.40;;;30.10;;
5052;SDS011;2545;50.892;5.740;2022-08-19T03:08:39;36.33;;;28.50;;
5052;SDS011;2545;50.892;5.740;2022-08-19T03:11:11;36.40;;;28.33;;
5052;SDS011;2545;50.892;5.740;2022-08-19T03:13:48;36.77;;;29.97;;
5052;SDS011;2545;50.892;5.740;2022-08-19T03:16:19;38.13;;;28.17;;
5052;SDS011;2545;50.892;5.740;2022-08-19T03:18:46;39.23;;;29.27;;
5052;SDS011;2545;50.892;5.740;2022-08-19T03:21:15;44.00;;;30.50;;
5052;SDS011;2545;50.892;5.740;2022-08-19T03:23:46;50.13;;;32.97;;
5052;SDS011;2545;50.892;5.740;2022-08-19T03:26:11;42.17;;;31.73;;
5052;SDS011;2545;50.892;5.740;2022-08-19T03:28:39;45.80;;;32.10;;
5052;SDS011;2545;50.892;5.740;2022-08-19T03:31:05;47.53;;;33.10;;
5052;SDS011;2545;50.892;5.740;2022-08-19T03:33:33;43.87;;;33.40;;
5052;SDS011;2545;50.892;5.740;2022-08-19T03:36:07;46.23;;;33.60;;
5052;SDS011;2545;50.892;5.740;2022-08-19T03:38:37;46.53;;;34.03;;
5052;SDS011;2545;50.892;5.740;2022-08-19T03:41:05;44.63;;;34.30;;
5052;SDS011;2545;50.892;5.740;2022-08-19T03:43:34;45.03;;;33.60;;
5052;SDS011;2545;50.892;5.740;2022-08-19T03:46:01;47.30;;;35.60;;
5052;SDS011;2545;50.892;5.740;2022-08-19T03:48:31;43.70;;;33.20;;
5052;SDS011;2545;50.892;5.740;2022-08-19T03:50:58;52.70;;;36.90;;
5052;SDS011;2545;50.892;5.740;2022-08-19T03:53:26;63.67;;;35.53;;
5052;SDS011;2545;50.892;5.740;2022-08-19T03:55:53;43.67;;;31.97;;
5052;SDS011;2545;50.892;5.740;2022-08-19T03:58:19;49.17;;;35.40;;
5052;SDS011;2545;50.892;5.740;2022-08-19T04:00:45;48.93;;;34.50;;
5052;SDS011;2545;50.892;5.740;2022-08-19T04:03:10;42.67;;;34.20;;
5052;SDS011;2545;50.892;5.740;2022-08-19T04:05:36;54.27;;;36.90;;
5052;SDS011;2545;50.892;5.740;2022-08-19T04:08:02;47.07;;;35.10;;
5052;SDS011;2545;50.892;5.740;2022-08-19T04:10:28;52.80;;;36.00;;
5052;SDS011;2545;50.892;5.740;2022-08-19T04:12:53;50.87;;;36.57;;
5052;SDS011;2545;50.892;5.740;2022-08-19T04:15:19;48.10;;;34.73;;
5052;SDS011;2545;50.892;5.740;2022-08-19T04:17:45;47.90;;;33.97;;
5052;SDS011;2545;50.892;5.740;2022-08-19T04:20:11;57.47;;;38.33;;
5052;SDS011;2545;50.892;5.740;2022-08-19T04:22:36;53.73;;;37.37;;
5052;SDS011;2545;50.892;5.740;2022-08-19T04:25:02;54.23;;;37.07;;
5052;SDS011;2545;50.892;5.740;2022-08-19T04:27:28;58.37;;;38.57;;
5052;SDS011;2545;50.892;5.740;2022-08-19T04:29:54;61.80;;;39.03;;
5052;SDS011;2545;50.892;5.740;2022-08-19T04:32:19;52.03;;;35.87;;
5052;SDS011;2545;50.892;5.740;2022-08-19T04:34:45;65.67;;;40.37;;
5052;SDS011;2545;50.892;5.740;2022-08-19T04:37:11;56.40;;;38.17;;
5052;SDS011;2545;50.892;5.740;2022-08-19T04:39:37;64.77;;;40.07;;
5052;SDS011;2545;50.892;5.740;2022-08-19T04:42:22;60.20;;;38.87;;
5052;SDS011;2545;50.892;5.740;2022-08-19T04:45:06;66.80;;;41.93;;
5052;SDS011;2545;50.892;5.740;2022-08-19T04:47:34;68.40;;;41.50;;
5052;SDS011;2545;50.892;5.740;2022-08-19T04:50:02;65.00;;;43.30;;
5052;SDS011;2545;50.892;5.740;2022-08-19T04:52:28;70.00;;;42.60;;
5052;SDS011;2545;50.892;5.740;2022-08-19T04:54:53;72.50;;;44.77;;
5052;SDS011;2545;50.892;5.740;2022-08-19T04:57:20;68.00;;;43.07;;
5052;SDS011;2545;50.892;5.740;2022-08-19T04:59:46;60.77;;;42.20;;
5052;SDS011;2545;50.892;5.740;2022-08-19T05:02:11;66.50;;;43.07;;
5052;SDS011;2545;50.892;5.740;2022-08-19T05:04:36;79.90;;;46.50;;
5052;SDS011;2545;50.892;5.740;2022-08-19T05:07:04;70.73;;;42.90;;
5052;SDS011;2545;50.892;5.740;2022-08-19T05:09:29;76.60;;;43.30;;
5052;SDS011;2545;50.892;5.740;2022-08-19T05:11:54;69.13;;;44.00;;
5052;SDS011;2545;50.892;5.740;2022-08-19T05:14:20;70.83;;;44.33;;
5052;SDS011;2545;50.892;5.740;2022-08-19T05:16:46;72.37;;;45.53;;
5052;SDS011;2545;50.892;5.740;2022-08-19T05:19:12;75.50;;;45.83;;
5052;SDS011;2545;50.892;5.740;2022-08-19T05:21:55;75.23;;;45.67;;
5052;SDS011;2545;50.892;5.740;2022-08-19T05:24:39;75.10;;;46.47;;
5052;SDS011;2545;50.892;5.740;2022-08-19T05:27:04;81.37;;;45.73;;
5052;SDS011;2545;50.892;5.740;2022-08-19T05:29:31;76.27;;;44.40;;
5052;SDS011;2545;50.892;5.740;2022-08-19T05:31:59;77.70;;;46.33;;
5052;SDS011;2545;50.892;5.740;2022-08-19T05:34:26;75.03;;;44.57;;
5052;SDS011;2545;50.892;5.740;2022-08-19T05:36:53;72.33;;;44.50;;
5052;SDS011;2545;50.892;5.740;2022-08-19T05:39:22;71.20;;;42.67;;
5052;SDS011;2545;50.892;5.740;2022-08-19T05:41:58;71.60;;;44.10;;
5052;SDS011;2545;50.892;5.740;2022-08-19T05:44:26;75.57;;;46.37;;
5052;SDS011;2545;50.892;5.740;2022-08-19T05:46:56;66.00;;;42.47;;
5052;SDS011;2545;50.892;5.740;2022-08-19T05:49:22;83.93;;;46.67;;
5052;SDS011;2545;50.892;5.740;2022-08-19T05:51:48;74.27;;;46.37;;
5052;SDS011;2545;50.892;5.740;2022-08-19T05:54:14;68.70;;;43.03;;
5052;SDS011;2545;50.892;5.740;2022-08-19T05:56:41;70.10;;;44.07;;
5052;SDS011;2545;50.892;5.740;2022-08-19T05:59:08;71.10;;;44.50;;
5052;SDS011;2545;50.892;5.740;2022-08-19T06:01:36;68.17;;;42.97;;
5052;SDS011;2545;50.892;5.740;2022-08-19T06:04:03;74.13;;;40.70;;
5052;SDS011;2545;50.892;5.740;2022-08-19T06:06:29;73.03;;;42.13;;
5052;SDS011;2545;50.892;5.740;2022-08-19T06:08:55;73.20;;;43.30;;
5052;SDS011;2545;50.892;5.740;2022-08-19T06:11:25;67.07;;;39.10;;
5052;SDS011;2545;50.892;5.740;2022-08-19T06:14:05;79.60;;;43.20;;
5052;SDS011;2545;50.892;5.740;2022-08-19T06:16:36;81.97;;;45.23;;
5052;SDS011;2545;50.892;5.740;2022-08-19T06:19:04;76.27;;;44.23;;
5052;SDS011;2545;50.892;5.740;2022-08-19T06:21:33;80.50;;;46.93;;
5052;SDS011;2545;50.892;5.740;2022-08-19T06:24:01;93.30;;;48.00;;
5052;SDS011;2545;50.892;5.740;2022-08-19T06:26:28;91.07;;;50.03;;
5052;SDS011;2545;50.892;5.740;2022-08-19T06:28:54;79.13;;;47.27;;
5052;SDS011;2545;50.892;5.740;2022-08-19T06:31:21;85.17;;;48.60;;
5052;SDS011;2545;50.892;5.740;2022-08-19T06:33:49;82.80;;;47.70;;
5052;SDS011;2545;50.892;5.740;2022-08-19T06:36:19;83.83;;;43.73;;
5052;SDS011;2545;50.892;5.740;2022-08-19T06:38:54;70.80;;;42.97;;
5052;SDS011;2545;50.892;5.740;2022-08-19T06:41:21;67.43;;;41.93;;
5052;SDS011;2545;50.892;5.740;2022-08-19T06:43:47;78.00;;;42.00;;
5052;SDS011;2545;50.892;5.740;2022-08-19T06:46:14;65.70;;;39.20;;
5052;SDS011;2545;50.892;5.740;2022-08-19T06:48:40;72.80;;;42.30;;
5052;SDS011;2545;50.892;5.740;2022-08-19T06:51:06;78.73;;;39.07;;
5052;SDS011;2545;50.892;5.740;2022-08-19T06:53:32;58.30;;;37.40;;
5052;SDS011;2545;50.892;5.740;2022-08-19T06:55:57;58.00;;;36.60;;
5052;SDS011;2545;50.892;5.740;2022-08-19T06:58:24;57.47;;;35.80;;
5052;SDS011;2545;50.892;5.740;2022-08-19T07:00:50;67.23;;;37.90;;
5052;SDS011;2545;50.892;5.740;2022-08-19T07:03:16;57.33;;;33.90;;
5052;SDS011;2545;50.892;5.740;2022-08-19T07:05:42;57.47;;;36.83;;
5052;SDS011;2545;50.892;5.740;2022-08-19T07:08:08;57.73;;;33.80;;
5052;SDS011;2545;50.892;5.740;2022-08-19T07:10:35;58.20;;;34.20;;
5052;SDS011;2545;50.892;5.740;2022-08-19T07:13:01;56.57;;;31.27;;
5052;SDS011;2545;50.892;5.740;2022-08-19T07:15:28;46.50;;;30.70;;
5052;SDS011;2545;50.892;5.740;2022-08-19T07:17:54;45.00;;;29.37;;
5052;SDS011;2545;50.892;5.740;2022-08-19T07:20:20;49.80;;;29.40;;
5052;SDS011;2545;50.892;5.740;2022-08-19T07:22:45;49.87;;;27.80;;
5052;SDS011;2545;50.892;5.740;2022-08-19T07:25:11;51.90;;;27.27;;
5052;SDS011;2545;50.892;5.740;2022-08-19T07:27:38;52.17;;;26.80;;
5052;SDS011;2545;50.892;5.740;2022-08-19T07:30:04;51.40;;;27.10;;
5052;SDS011;2545;50.892;5.740;2022-08-19T07:32:30;40.60;;;26.03;;
5052;SDS011;2545;50.892;5.740;2022-08-19T07:34:55;46.83;;;24.33;;
5052;SDS011;2545;50.892;5.740;2022-08-19T07:37:21;46.03;;;22.90;;
5052;SDS011;2545;50.892;5.740;2022-08-19T07:39:46;40.67;;;23.87;;
5052;SDS011;2545;50.892;5.740;2022-08-19T07:42:12;53.57;;;25.67;;
5052;SDS011;2545;50.892;5.740;2022-08-19T07:44:38;41.70;;;25.53;;
5052;SDS011;2545;50.892;5.740;2022-08-19T07:47:05;41.50;;;26.20;;
5052;SDS011;2545;50.892;5.740;2022-08-19T07:49:31;45.33;;;25.53;;
5052;SDS011;2545;50.892;5.740;2022-08-19T07:54:27;39.47;;;23.57;;
5052;SDS011;2545;50.892;5.740;2022-08-19T07:56:54;41.97;;;24.83;;
5052;SDS011;2545;50.892;5.740;2022-08-19T07:59:20;35.27;;;20.80;;
5052;SDS011;2545;50.892;5.740;2022-08-19T08:01:46;41.20;;;23.70;;
5052;SDS011;2545;50.892;5.740;2022-08-19T08:04:13;39.53;;;22.70;;
5052;SDS011;2545;50.892;5.740;2022-08-19T08:06:57;34.93;;;20.67;;
5052;SDS011;2545;50.892;5.740;2022-08-19T08:09:42;32.30;;;20.57;;
5052;SDS011;2545;50.892;5.740;2022-08-19T08:12:13;32.60;;;20.00;;
5052;SDS011;2545;50.892;5.740;2022-08-19T08:14:42;36.53;;;19.63;;
5052;SDS011;2545;50.892;5.740;2022-08-19T08:17:12;28.90;;;17.13;;
5052;SDS011;2545;50.892;5.740;2022-08-19T08:19:38;34.90;;;19.47;;
5052;SDS011;2545;50.892;5.740;2022-08-19T08:22:06;28.90;;;16.53;;
5052;SDS011;2545;50.892;5.740;2022-08-19T08:24:33;34.47;;;17.93;;
5052;SDS011;2545;50.892;5.740;2022-08-19T08:27:00;27.13;;;17.13;;
5052;SDS011;2545;50.892;5.740;2022-08-19T08:29:28;25.10;;;17.33;;
5052;SDS011;2545;50.892;5.740;2022-08-19T08:31:55;27.00;;;18.10;;
5052;SDS011;2545;50.892;5.740;2022-08-19T08:34:21;27.40;;;17.23;;
5052;SDS011;2545;50.892;5.740;2022-08-19T08:36:46;27.47;;;18.37;;
5052;SDS011;2545;50.892;5.740;2022-08-19T08:39:15;30.83;;;18.00;;
5052;SDS011;2545;50.892;5.740;2022-08-19T08:44:21;24.67;;;15.60;;
5052;SDS011;2545;50.892;5.740;2022-08-19T08:46:57;20.10;;;13.53;;
5052;SDS011;2545;50.892;5.740;2022-08-19T08:49:31;32.33;;;17.10;;
5052;SDS011;2545;50.892;5.740;2022-08-19T08:52:05;26.13;;;16.00;;
5052;SDS011;2545;50.892;5.740;2022-08-19T08:54:57;25.57;;;15.87;;
5052;SDS011;2545;50.892;5.740;2022-08-19T08:57:30;25.27;;;16.37;;
5052;SDS011;2545;50.892;5.740;2022-08-19T09:00:02;28.50;;;17.33;;
5052;SDS011;2545;50.892;5.740;2022-08-19T09:02:31;30.70;;;16.87;;
5052;SDS011;2545;50.892;5.740;2022-08-19T09:04:56;24.17;;;15.60;;
5052;SDS011;2545;50.892;5.740;2022-08-19T09:10:25;32.27;;;15.77;;
5052;SDS011;2545;50.892;5.740;2022-08-19T09:15:42;23.43;;;16.60;;
5052;SDS011;2545;50.892;5.740;2022-08-19T09:18:11;29.20;;;16.37;;
5052;SDS011;2545;50.892;5.740;2022-08-19T09:20:37;25.63;;;16.33;;
5052;SDS011;2545;50.892;5.740;2022-08-19T09:23:02;25.67;;;16.40;;
5052;SDS011;2545;50.892;5.740;2022-08-19T09:25:28;34.07;;;18.93;;
5052;SDS011;2545;50.892;5.740;2022-08-19T09:27:55;26.03;;;18.10;;
5052;SDS011;2545;50.892;5.740;2022-08-19T09:30:24;32.67;;;21.73;;
5052;SDS011;2545;50.892;5.740;2022-08-19T09:32:51;29.47;;;19.50;;
5052;SDS011;2545;50.892;5.740;2022-08-19T09:35:18;24.33;;;17.17;;
5052;SDS011;2545;50.892;5.740;2022-08-19T09:37:44;25.83;;;16.80;;
5052;SDS011;2545;50.892;5.740;2022-08-19T09:40:10;21.67;;;15.30;;
5052;SDS011;2545;50.892;5.740;2022-08-19T09:42:36;25.23;;;17.47;;
5052;SDS011;2545;50.892;5.740;2022-08-19T09:45:02;23.20;;;14.93;;
5052;SDS011;2545;50.892;5.740;2022-08-19T09:47:28;32.30;;;19.40;;
5052;SDS011;2545;50.892;5.740;2022-08-19T09:49:53;29.87;;;19.10;;
5052;SDS011;2545;50.892;5.740;2022-08-19T09:52:19;32.90;;;19.20;;
5052;SDS011;2545;50.892;5.740;2022-08-19T09:54:45;30.53;;;20.73;;
5052;SDS011;2545;50.892;5.740;2022-08-19T09:57:10;34.33;;;20.97;;
5052;SDS011;2545;50.892;5.740;2022-08-19T09:59:35;26.37;;;17.90;;
5052;SDS011;2545;50.892;5.740;2022-08-19T10:02:01;29.43;;;18.57;;
5052;SDS011;2545;50.892;5.740;2022-08-19T10:04:27;44.50;;;21.60;;
5052;SDS011;2545;50.892;5.740;2022-08-19T10:07:12;28.33;;;19.23;;
5052;SDS011;2545;50.892;5.740;2022-08-19T10:09:38;35.70;;;21.10;;
5052;SDS011;2545;50.892;5.740;2022-08-19T10:12:03;37.17;;;20.67;;
5052;SDS011;2545;50.892;5.740;2022-08-19T10:14:29;26.77;;;18.67;;
5052;SDS011;2545;50.892;5.740;2022-08-19T10:16:55;27.67;;;16.90;;
5052;SDS011;2545;50.892;5.740;2022-08-19T10:19:21;27.30;;;18.60;;
5052;SDS011;2545;50.892;5.740;2022-08-19T10:21:46;35.00;;;20.47;;
5052;SDS011;2545;50.892;5.740;2022-08-19T10:24:12;34.87;;;21.93;;
5052;SDS011;2545;50.892;5.740;2022-08-19T10:26:38;34.90;;;18.63;;
5052;SDS011;2545;50.892;5.740;2022-08-19T10:29:07;26.80;;;18.67;;
5052;SDS011;2545;50.892;5.740;2022-08-19T10:31:33;28.87;;;19.00;;
5052;SDS011;2545;50.892;5.740;2022-08-19T10:33:59;35.70;;;19.50;;
5052;SDS011;2545;50.892;5.740;2022-08-19T10:36:26;31.53;;;19.47;;
5052;SDS011;2545;50.892;5.740;2022-08-19T10:39:03;26.43;;;17.23;;
5052;SDS011;2545;50.892;5.740;2022-08-19T10:41:32;24.53;;;16.83;;
5052;SDS011;2545;50.892;5.740;2022-08-19T10:44:03;25.70;;;17.13;;
5052;SDS011;2545;50.892;5.740;2022-08-19T10:46:31;23.33;;;16.53;;
5052;SDS011;2545;50.892;5.740;2022-08-19T10:48:58;24.00;;;16.80;;
5052;SDS011;2545;50.892;5.740;2022-08-19T10:51:25;18.63;;;11.40;;
5052;SDS011;2545;50.892;5.740;2022-08-19T10:54:08;15.93;;;12.83;;
5052;SDS011;2545;50.892;5.740;2022-08-19T10:56:34;18.70;;;11.53;;
5052;SDS011;2545;50.892;5.740;2022-08-19T10:59:22;15.23;;;10.90;;
5052;SDS011;2545;50.892;5.740;2022-08-19T11:01:52;14.20;;;9.40;;
5052;SDS011;2545;50.892;5.740;2022-08-19T11:04:19;12.73;;;7.67;;
5052;SDS011;2545;50.892;5.740;2022-08-19T11:06:47;11.47;;;6.93;;
5052;SDS011;2545;50.892;5.740;2022-08-19T11:09:17;12.73;;;8.77;;
5052;SDS011;2545;50.892;5.740;2022-08-19T11:11:44;16.53;;;9.20;;
5052;SDS011;2545;50.892;5.740;2022-08-19T11:14:10;12.27;;;8.27;;
5052;SDS011;2545;50.892;5.740;2022-08-19T11:16:39;15.47;;;7.30;;
5052;SDS011;2545;50.892;5.740;2022-08-19T11:19:05;11.57;;;6.20;;
5052;SDS011;2545;50.892;5.740;2022-08-19T11:21:34;8.03;;;5.10;;
5052;SDS011;2545;50.892;5.740;2022-08-19T11:24:02;9.93;;;5.10;;
5052;SDS011;2545;50.892;5.740;2022-08-19T11:26:31;8.10;;;5.20;;
5052;SDS011;2545;50.892;5.740;2022-08-19T11:28:57;6.90;;;4.80;;
5052;SDS011;2545;50.892;5.740;2022-08-19T11:31:26;7.53;;;5.50;;
5052;SDS011;2545;50.892;5.740;2022-08-19T11:33:55;8.67;;;5.53;;
5052;SDS011;2545;50.892;5.740;2022-08-19T11:36:21;22.13;;;5.50;;
5052;SDS011;2545;50.892;5.740;2022-08-19T11:38:47;8.80;;;5.00;;
5052;SDS011;2545;50.892;5.740;2022-08-19T11:41:14;7.00;;;5.40;;
5052;SDS011;2545;50.892;5.740;2022-08-19T11:43:41;10.70;;;4.10;;
5052;SDS011;2545;50.892;5.740;2022-08-19T11:46:08;8.50;;;5.13;;
5052;SDS011;2545;50.892;5.740;2022-08-19T11:48:35;7.10;;;4.90;;
5052;SDS011;2545;50.892;5.740;2022-08-19T11:51:03;9.17;;;4.87;;
5052;SDS011;2545;50.892;5.740;2022-08-19T11:53:34;7.40;;;4.30;;
5052;SDS011;2545;50.892;5.740;2022-08-19T11:56:00;6.13;;;3.83;;
5052;SDS011;2545;50.892;5.740;2022-08-19T11:58:25;8.00;;;4.40;;
5052;SDS011;2545;50.892;5.740;2022-08-19T12:00:51;7.10;;;3.63;;
5052;SDS011;2545;50.892;5.740;2022-08-19T12:03:16;4.47;;;3.90;;
5052;SDS011;2545;50.892;5.740;2022-08-19T12:05:43;9.80;;;3.70;;
5052;SDS011;2545;50.892;5.740;2022-08-19T12:08:08;7.17;;;3.63;;
5052;SDS011;2545;50.892;5.740;2022-08-19T12:10:34;4.50;;;3.03;;
5052;SDS011;2545;50.892;5.740;2022-08-19T12:13:00;4.97;;;3.30;;
5052;SDS011;2545;50.892;5.740;2022-08-19T12:15:27;3.97;;;3.50;;
5052;SDS011;2545;50.892;5.740;2022-08-19T12:17:54;5.03;;;3.67;;
5052;SDS011;2545;50.892;5.740;2022-08-19T12:20:21;7.17;;;3.13;;
5052;SDS011;2545;50.892;5.740;2022-08-19T12:22:47;7.00;;;3.63;;
5052;SDS011;2545;50.892;5.740;2022-08-19T12:25:13;7.33;;;3.40;;
5052;SDS011;2545;50.892;5.740;2022-08-19T12:27:39;6.20;;;3.53;;
5052;SDS011;2545;50.892;5.740;2022-08-19T12:30:05;3.60;;;2.67;;
5052;SDS011;2545;50.892;5.740;2022-08-19T12:32:33;13.53;;;2.30;;
5052;SDS011;2545;50.892;5.740;2022-08-19T12:34:58;4.40;;;3.13;;
5052;SDS011;2545;50.892;5.740;2022-08-19T12:37:24;7.80;;;2.90;;
5052;SDS011;2545;50.892;5.740;2022-08-19T12:39:49;6.20;;;2.90;;
5052;SDS011;2545;50.892;5.740;2022-08-19T12:42:14;9.23;;;4.00;;
5052;SDS011;2545;50.892;5.740;2022-08-19T12:44:40;8.23;;;3.13;;
5052;SDS011;2545;50.892;5.740;2022-08-19T12:47:07;2.60;;;2.40;;
5052;SDS011;2545;50.892;5.740;2022-08-19T12:49:34;3.90;;;2.90;;
5052;SDS011;2545;50.892;5.740;2022-08-19T12:52:02;4.13;;;2.60;;
5052;SDS011;2545;50.892;5.740;2022-08-19T12:54:29;5.33;;;2.83;;
5052;SDS011;2545;50.892;5.740;2022-08-19T12:56:55;2.73;;;2.13;;
5052;SDS011;2545;50.892;5.740;2022-08-19T12:59:21;6.47;;;2.33;;
5052;SDS011;2545;50.892;5.740;2022-08-19T13:01:47;6.07;;;2.30;;
5052;SDS011;2545;50.892;5.740;2022-08-19T13:04:12;2.70;;;2.10;;
5052;SDS011;2545;50.892;5.740;2022-08-19T13:06:37;2.93;;;2.60;;
5052;SDS011;2545;50.892;5.740;2022-08-19T13:09:03;3.30;;;2.60;;
5052;SDS011;2545;50.892;5.740;2022-08-19T13:11:29;4.43;;;2.50;;
5052;SDS011;2545;50.892;5.740;2022-08-19T13:13:57;3.70;;;2.77;;
5052;SDS011;2545;50.892;5.740;2022-08-19T13:16:23;7.17;;;3.20;;
5052;SDS011;2545;50.892;5.740;2022-08-19T13:18:49;3.60;;;2.90;;
5052;SDS011;2545;50.892;5.740;2022-08-19T13:21:17;5.03;;;3.27;;
5052;SDS011;2545;50.892;5.740;2022-08-19T13:23:45;4.23;;;2.20;;
5052;SDS011;2545;50.892;5.740;2022-08-19T13:26:11;3.53;;;2.50;;
5052;SDS011;2545;50.892;5.740;2022-08-19T13:28:38;8.10;;;2.73;;
5052;SDS011;2545;50.892;5.740;2022-08-19T13:31:23;10.23;;;3.30;;
5052;SDS011;2545;50.892;5.740;2022-08-19T13:34:09;6.73;;;2.97;;
5052;SDS011;2545;50.892;5.740;2022-08-19T13:36:35;3.80;;;2.63;;
5052;SDS011;2545;50.892;5.740;2022-08-19T13:39:01;4.50;;;3.00;;
5052;SDS011;2545;50.892;5.740;2022-08-19T13:41:27;2.97;;;2.70;;
5052;SDS011;2545;50.892;5.740;2022-08-19T13:43:53;4.13;;;2.90;;
5052;SDS011;2545;50.892;5.740;2022-08-19T13:46:19;5.87;;;3.80;;
5052;SDS011;2545;50.892;5.740;2022-08-19T13:48:45;9.30;;;3.90;;
5052;SDS011;2545;50.892;5.740;2022-08-19T13:51:11;6.90;;;4.77;;
5052;SDS011;2545;50.892;5.740;2022-08-19T13:53:37;7.30;;;4.40;;
5052;SDS011;2545;50.892;5.740;2022-08-19T13:56:13;7.60;;;3.80;;
5052;SDS011;2545;50.892;5.740;2022-08-19T13:58:40;5.90;;;3.80;;
5052;SDS011;2545;50.892;5.740;2022-08-19T14:01:06;6.27;;;4.20;;
5052;SDS011;2545;50.892;5.740;2022-08-19T14:03:32;6.43;;;4.13;;
5052;SDS011;2545;50.892;5.740;2022-08-19T14:05:58;5.63;;;4.30;;
5052;SDS011;2545;50.892;5.740;2022-08-19T14:08:24;6.17;;;3.90;;
5052;SDS011;2545;50.892;5.740;2022-08-19T14:10:52;9.27;;;4.60;;
5052;SDS011;2545;50.892;5.740;2022-08-19T14:13:21;8.00;;;3.73;;
5052;SDS011;2545;50.892;5.740;2022-08-19T14:15:48;5.77;;;4.03;;
5052;SDS011;2545;50.892;5.740;2022-08-19T14:18:17;9.03;;;4.57;;
5052;SDS011;2545;50.892;5.740;2022-08-19T14:20:43;5.30;;;4.53;;
5052;SDS011;2545;50.892;5.740;2022-08-19T14:23:09;7.50;;;4.10;;
5052;SDS011;2545;50.892;5.740;2022-08-19T14:25:34;6.83;;;3.80;;
5052;SDS011;2545;50.892;5.740;2022-08-19T14:28:00;5.70;;;3.23;;
5052;SDS011;2545;50.892;5.740;2022-08-19T14:30:27;11.07;;;4.40;;
5052;SDS011;2545;50.892;5.740;2022-08-19T14:32:57;6.13;;;4.13;;
5052;SDS011;2545;50.892;5.740;2022-08-19T14:35:25;5.60;;;3.03;;
5052;SDS011;2545;50.892;5.740;2022-08-19T14:37:52;4.03;;;3.60;;
5052;SDS011;2545;50.892;5.740;2022-08-19T14:40:24;4.67;;;3.20;;
5052;SDS011;2545;50.892;5.740;2022-08-19T14:42:51;6.57;;;3.03;;
5052;SDS011;2545;50.892;5.740;2022-08-19T14:45:24;4.40;;;3.30;;
5052;SDS011;2545;50.892;5.740;2022-08-19T14:47:50;7.53;;;3.40;;
5052;SDS011;2545;50.892;5.740;2022-08-19T14:50:16;3.80;;;2.90;;
5052;SDS011;2545;50.892;5.740;2022-08-19T14:52:42;3.60;;;2.97;;
5052;SDS011;2545;50.892;5.740;2022-08-19T14:55:08;4.70;;;3.03;;
5052;SDS011;2545;50.892;5.740;2022-08-19T14:57:33;4.80;;;2.70;;
5052;SDS011;2545;50.892;5.740;2022-08-19T14:59:59;3.80;;;2.67;;
5052;SDS011;2545;50.892;5.740;2022-08-19T15:02:24;3.93;;;2.27;;
5052;SDS011;2545;50.892;5.740;2022-08-19T15:04:49;5.83;;;2.33;;
5052;SDS011;2545;50.892;5.740;2022-08-19T15:07:15;3.63;;;2.43;;
5052;SDS011;2545;50.892;5.740;2022-08-19T15:09:41;5.07;;;2.33;;